Time;durP1;ratioP1;P1;durP2;ratioP2;P2;SDS_P1;SDS_P2;PMS_P1;PMS_P2;Temp;Humidity;BMP_temperature;BMP_pressure;BME280_temperature;BME280_humidity;BME280_pressure;Samples;Min_cycle;Max_cycle;Signal;HPM_P1;HPM_P2
2024/03/15 00:01:38;;;;;;;3.90;2.00;;;12.60;99.90;;;;;;5016095;28;20601;-70
2024/03/15 00:04:04;;;;;;;4.68;2.17;;;12.60;99.90;;;;;;4999102;28;20422;-69
2024/03/15 00:06:29;;;;;;;4.93;2.38;;;12.60;99.90;;;;;;5000024;28;20049;-70
2024/03/15 00:08:56;;;;;;;6.85;1.75;;;12.60;99.90;;;;;;5014564;28;20108;-71
2024/03/15 00:11:22;;;;;;;5.75;2.13;;;12.60;99.90;;;;;;5017474;28;20033;-71
2024/03/15 00:13:49;;;;;;;11.88;2.88;;;12.60;99.90;;;;;;5016279;28;20045;-72
2024/03/15 00:16:14;;;;;;;5.70;2.03;;;12.60;99.90;;;;;;5000087;28;20026;-70
2024/03/15 00:18:40;;;;;;;5.15;2.53;;;12.60;99.90;;;;;;4994545;28;20046;-69
2024/03/15 00:21:06;;;;;;;10.88;2.45;;;12.60;99.90;;;;;;5018379;28;20030;-72
2024/03/15 00:23:32;;;;;;;2.90;1.77;;;12.70;99.90;;;;;;5017647;28;20645;-71
2024/03/15 00:25:58;;;;;;;3.58;1.88;;;12.70;99.90;;;;;;5012764;28;20077;-70
2024/03/15 00:28:24;;;;;;;5.30;2.20;;;12.60;99.90;;;;;;5013468;28;20029;-70
2024/03/15 00:30:50;;;;;;;7.35;2.97;;;12.70;99.90;;;;;;5015750;28;20045;-70
2024/03/15 00:33:15;;;;;;;8.18;2.00;;;12.60;99.90;;;;;;5014285;28;20042;-70
2024/03/15 00:35:42;;;;;;;4.38;1.90;;;12.70;99.90;;;;;;5020804;28;20038;-71
2024/03/15 00:38:08;;;;;;;6.22;2.38;;;12.70;99.90;;;;;;5016054;28;20028;-70
2024/03/15 00:40:33;;;;;;;7.47;2.30;;;12.70;99.90;;;;;;4992870;28;20422;-70
2024/03/15 00:42:59;;;;;;;4.90;2.50;;;12.70;99.90;;;;;;4998382;28;20045;-70
2024/03/15 00:45:25;;;;;;;7.07;2.25;;;12.70;99.90;;;;;;5009035;28;20030;-69
2024/03/15 00:47:55;;;;;;;4.40;2.42;;;12.70;99.90;;;;;;5017411;28;20042;-71
2024/03/15 00:50:20;;;;;;;5.28;2.25;;;12.70;99.90;;;;;;5017617;28;20453;-70
2024/03/15 00:52:46;;;;;;;9.43;2.72;;;12.80;99.90;;;;;;5016613;28;20038;-70
2024/03/15 00:55:12;;;;;;;5.05;2.83;;;12.80;99.90;;;;;;4996292;28;20077;-68
2024/03/15 00:57:38;;;;;;;4.97;2.55;;;12.70;99.90;;;;;;5001627;28;20033;-69
2024/03/15 01:00:05;;;;;;;4.38;2.05;;;12.70;99.90;;;;;;4995146;28;20033;-70
2024/03/15 01:02:30;;;;;;;5.95;2.53;;;12.70;99.90;;;;;;4998425;28;20064;-71
2024/03/15 01:04:56;;;;;;;5.25;2.10;;;12.70;99.90;;;;;;5016786;28;20053;-69
2024/03/15 01:07:22;;;;;;;6.82;2.33;;;12.60;99.90;;;;;;5016996;28;20111;-71
2024/03/15 01:09:47;;;;;;;5.45;2.33;;;12.70;99.90;;;;;;5017070;28;20070;-70
2024/03/15 01:12:14;;;;;;;3.97;1.73;;;12.70;99.90;;;;;;5013859;28;20135;-71
2024/03/15 01:14:40;;;;;;;3.42;2.03;;;12.60;99.90;;;;;;5012301;28;20034;-72
2024/03/15 01:17:07;;;;;;;4.18;2.22;;;12.70;99.90;;;;;;4993936;28;20041;-70
2024/03/15 01:19:33;;;;;;;5.40;2.70;;;12.60;99.90;;;;;;5014298;28;20076;-70
2024/03/15 01:22:00;;;;;;;5.10;2.40;;;12.60;99.90;;;;;;4989600;28;20030;-71
2024/03/15 01:24:26;;;;;;;10.25;2.88;;;12.50;99.90;;;;;;5014086;28;20038;-71
2024/03/15 01:26:52;;;;;;;6.88;2.55;;;12.50;99.90;;;;;;4994929;28;20402;-72
2024/03/15 01:29:17;;;;;;;5.93;3.03;;;12.50;99.90;;;;;;5012294;28;20028;-71
2024/03/15 01:31:43;;;;;;;7.45;2.17;;;12.50;99.90;;;;;;5014267;28;20044;-71
2024/03/15 01:34:08;;;;;;;7.15;2.40;;;12.50;99.90;;;;;;5010058;28;20240;-71
2024/03/15 01:36:34;;;;;;;4.85;2.40;;;12.50;99.90;;;;;;5014585;28;20565;-73
2024/03/15 01:38:59;;;;;;;5.50;2.38;;;12.50;99.90;;;;;;5006284;28;20482;-72
2024/03/15 01:41:25;;;;;;;4.10;2.10;;;12.50;99.90;;;;;;4994084;28;20038;-71
2024/03/15 01:43:51;;;;;;;5.43;2.50;;;12.50;99.90;;;;;;4996531;28;20049;-70
2024/03/15 01:46:17;;;;;;;6.22;2.53;;;12.50;99.90;;;;;;4992232;28;20088;-72
2024/03/15 01:48:44;;;;;;;6.78;2.90;;;12.50;99.90;;;;;;4995994;28;20064;-74
2024/03/15 01:51:11;;;;;;;14.38;4.28;;;12.50;99.90;;;;;;4993373;28;20060;-72
2024/03/15 01:53:37;;;;;;;7.00;2.70;;;12.50;99.90;;;;;;4993108;28;20046;-70
2024/03/15 01:56:03;;;;;;;4.55;2.75;;;12.50;99.90;;;;;;5013174;28;20057;-71
2024/03/15 01:58:29;;;;;;;5.00;2.60;;;12.50;99.90;;;;;;5007527;28;20049;-70
2024/03/15 02:00:56;;;;;;;4.90;2.67;;;12.50;99.90;;;;;;5012237;28;20045;-71
2024/03/15 02:03:23;;;;;;;8.27;2.90;;;12.50;99.90;;;;;;5009922;28;20084;-72
2024/03/15 02:05:49;;;;;;;8.10;2.80;;;12.50;99.90;;;;;;4993719;28;20385;-70
2024/03/15 02:08:19;;;;;;;8.00;2.80;;;12.40;99.90;;;;;;4994188;28;20029;-71
2024/03/15 02:10:45;;;;;;;8.13;2.80;;;12.40;99.90;;;;;;5014433;28;20041;-70
2024/03/15 02:13:10;;;;;;;7.30;3.40;;;12.30;99.90;;;;;;4989805;28;20038;-70
2024/03/15 02:15:36;;;;;;;10.35;3.30;;;12.30;99.90;;;;;;4995928;28;20068;-72
2024/03/15 02:18:02;;;;;;;4.25;2.40;;;12.20;99.90;;;;;;4988986;28;20037;-71
2024/03/15 02:20:27;;;;;;;5.65;2.45;;;12.20;99.90;;;;;;5014140;28;20664;-71
2024/03/15 02:22:53;;;;;;;4.25;2.05;;;12.20;99.90;;;;;;5011745;28;20041;-68
2024/03/15 02:25:19;;;;;;;7.05;2.67;;;12.10;99.90;;;;;;5012258;28;20566;-71
2024/03/15 02:27:44;;;;;;;7.90;3.10;;;12.10;99.90;;;;;;5014210;28;20050;-71
2024/03/15 02:30:11;;;;;;;6.35;2.80;;;12.20;99.90;;;;;;5009745;28;20045;-69
2024/03/15 02:32:38;;;;;;;7.90;3.33;;;12.20;99.90;;;;;;5015364;28;20375;-70
2024/03/15 02:35:07;;;;;;;5.05;2.65;;;12.20;99.90;;;;;;4993693;28;20072;-72
2024/03/15 02:37:33;;;;;;;11.07;3.00;;;12.20;99.90;;;;;;5006005;28;20037;-70
2024/03/15 02:39:58;;;;;;;11.13;2.95;;;12.10;99.90;;;;;;4994348;28;20524;-69
2024/03/15 02:42:24;;;;;;;5.97;3.35;;;12.00;99.90;;;;;;5010882;28;20038;-68
2024/03/15 02:44:49;;;;;;;8.30;3.80;;;11.90;99.90;;;;;;4996054;28;20045;-73
2024/03/15 02:47:15;;;;;;;7.25;3.22;;;11.90;99.90;;;;;;5013451;28;20391;-71
2024/03/15 02:49:40;;;;;;;5.65;3.22;;;11.90;99.90;;;;;;5014024;28;20037;-72
2024/03/15 02:52:06;;;;;;;9.40;3.70;;;11.80;99.90;;;;;;4995715;28;20033;-70
2024/03/15 02:54:32;;;;;;;8.65;3.33;;;11.80;99.90;;;;;;5014928;28;20042;-71
2024/03/15 02:56:58;;;;;;;8.85;3.05;;;11.80;99.90;;;;;;5013701;28;20033;-69
2024/03/15 02:59:23;;;;;;;7.15;3.03;;;11.70;99.90;;;;;;5014057;28;20042;-70
2024/03/15 03:01:50;;;;;;;8.75;3.33;;;11.70;99.90;;;;;;5014291;28;20137;-71
2024/03/15 03:04:15;;;;;;;6.85;3.20;;;11.70;99.90;;;;;;5005589;28;20057;-72
2024/03/15 03:06:42;;;;;;;8.23;3.65;;;11.70;99.90;;;;;;4995124;28;20057;-71
2024/03/15 03:09:09;;;;;;;6.53;3.25;;;11.70;99.90;;;;;;5013879;28;20068;-71
2024/03/15 03:11:36;;;;;;;5.72;2.85;;;11.70;99.90;;;;;;5016469;28;20030;-71
2024/03/15 03:14:04;;;;;;;13.40;3.33;;;11.70;99.90;;;;;;4992007;28;20038;-70
2024/03/15 03:16:34;;;;;;;6.18;2.75;;;11.70;99.90;;;;;;4994051;28;20594;-71
2024/03/15 03:19:00;;;;;;;6.63;2.90;;;11.70;99.90;;;;;;5012927;28;20129;-71
2024/03/15 03:21:29;;;;;;;8.13;3.13;;;11.70;99.90;;;;;;5018973;28;20399;-71
2024/03/15 03:23:56;;;;;;;8.20;3.08;;;11.70;99.90;;;;;;5001442;28;20056;-68
2024/03/15 03:26:23;;;;;;;10.18;3.92;;;11.70;99.90;;;;;;5018378;28;20102;-71
2024/03/15 03:28:49;;;;;;;5.10;3.35;;;11.60;99.90;;;;;;5017505;28;20044;-71
2024/03/15 03:31:15;;;;;;;6.75;3.03;;;11.60;99.90;;;;;;5012719;28;20030;-71
2024/03/15 03:33:40;;;;;;;5.63;2.83;;;11.70;99.90;;;;;;5019837;28;20037;-71
2024/03/15 03:36:06;;;;;;;6.78;2.67;;;11.60;99.90;;;;;;5000384;28;20045;-70
2024/03/15 03:38:32;;;;;;;9.57;3.70;;;11.60;99.90;;;;;;5002244;28;20437;-71
2024/03/15 03:40:57;;;;;;;8.05;3.25;;;11.60;99.90;;;;;;4999069;28;20150;-70
2024/03/15 03:43:23;;;;;;;8.38;2.83;;;11.60;99.90;;;;;;5019568;28;20475;-70
2024/03/15 03:45:48;;;;;;;5.68;2.78;;;11.60;99.90;;;;;;5010864;28;20034;-71
2024/03/15 03:48:15;;;;;;;8.10;3.00;;;11.60;99.90;;;;;;5015838;28;20399;-72
2024/03/15 03:50:42;;;;;;;5.20;2.92;;;11.70;99.90;;;;;;5018285;28;20064;-70
2024/03/15 03:53:09;;;;;;;7.25;2.65;;;11.70;99.90;;;;;;4995944;28;20115;-70
2024/03/15 03:55:35;;;;;;;6.45;3.00;;;11.70;99.90;;;;;;5017996;28;20364;-71
2024/03/15 03:58:02;;;;;;;6.00;2.35;;;11.80;99.90;;;;;;5015651;28;20029;-73
2024/03/15 04:00:28;;;;;;;7.00;3.00;;;11.70;99.90;;;;;;5019810;28;20041;-70
2024/03/15 04:02:54;;;;;;;7.70;2.30;;;11.80;99.90;;;;;;5016700;28;20037;-71
2024/03/15 04:05:20;;;;;;;5.57;2.45;;;11.80;99.90;;;;;;4992684;28;20051;-70
2024/03/15 04:07:46;;;;;;;7.10;3.05;;;11.90;99.90;;;;;;5020199;28;20041;-70
2024/03/15 04:10:14;;;;;;;4.85;2.55;;;11.90;99.90;;;;;;5013383;28;20074;-72
2024/03/15 04:12:40;;;;;;;5.15;2.63;;;11.90;99.90;;;;;;5016608;28;20401;-70
2024/03/15 04:15:06;;;;;;;8.35;2.65;;;11.90;99.90;;;;;;5009908;28;20716;-70
2024/03/15 04:17:34;;;;;;;6.15;2.50;;;12.00;99.90;;;;;;4998485;28;20029;-71
2024/03/15 04:20:00;;;;;;;9.00;2.88;;;12.00;99.90;;;;;;5019275;28;20033;-71
2024/03/15 04:22:26;;;;;;;9.07;2.58;;;12.00;99.90;;;;;;5010948;28;20041;-72
2024/03/15 04:24:52;;;;;;;5.90;1.92;;;12.00;99.90;;;;;;5001922;28;20117;-71
2024/03/15 04:27:18;;;;;;;5.90;2.25;;;12.10;99.90;;;;;;5000265;28;20062;-69
2024/03/15 04:29:44;;;;;;;5.65;2.25;;;12.10;99.90;;;;;;5010965;28;20086;-67
2024/03/15 04:32:10;;;;;;;9.43;2.38;;;12.10;99.90;;;;;;4997077;28;20045;-71
2024/03/15 04:34:37;;;;;;;7.07;2.30;;;12.10;99.90;;;;;;5016994;28;20730;-69
2024/03/15 04:37:04;;;;;;;8.75;2.55;;;12.10;99.90;;;;;;5008530;28;20033;-70
2024/03/15 04:39:30;;;;;;;4.50;2.45;;;12.10;99.90;;;;;;4991917;28;20034;-72
2024/03/15 04:41:56;;;;;;;7.38;2.45;;;12.10;99.90;;;;;;4998101;28;20041;-69
2024/03/15 04:44:22;;;;;;;6.55;2.15;;;12.10;99.90;;;;;;4992800;28;20022;-71
2024/03/15 04:46:48;;;;;;;5.65;2.40;;;12.10;99.90;;;;;;5013157;28;20034;-71
2024/03/15 04:49:14;;;;;;;5.43;2.28;;;12.10;99.90;;;;;;5011103;28;20103;-71
2024/03/15 04:51:40;;;;;;;8.10;2.55;;;12.00;99.90;;;;;;5014039;28;20022;-70
2024/03/15 04:54:08;;;;;;;7.03;2.28;;;12.10;99.90;;;;;;4990902;28;20048;-69
2024/03/15 04:56:34;;;;;;;6.20;1.85;;;12.20;99.90;;;;;;4994953;28;20084;-71
2024/03/15 04:59:00;;;;;;;6.68;2.28;;;12.10;99.90;;;;;;5013674;28;20479;-70
2024/03/15 05:01:25;;;;;;;4.13;2.10;;;12.10;99.90;;;;;;4993640;28;20046;-70
2024/03/15 05:03:51;;;;;;;5.28;2.35;;;12.10;99.90;;;;;;5015344;28;20030;-70
2024/03/15 05:06:16;;;;;;;6.97;2.00;;;12.10;99.90;;;;;;5012107;28;20038;-71
2024/03/15 05:08:42;;;;;;;6.18;1.92;;;12.20;99.90;;;;;;4988023;28;20042;-70
2024/03/15 05:11:07;;;;;;;5.32;1.80;;;12.10;99.90;;;;;;5012350;28;20407;-72
2024/03/15 05:13:35;;;;;;;5.47;2.40;;;12.10;99.90;;;;;;4994242;28;20037;-70
2024/03/15 05:16:01;;;;;;;3.83;2.03;;;12.10;99.90;;;;;;5010760;28;20062;-69
2024/03/15 05:18:29;;;;;;;6.38;2.33;;;12.00;99.90;;;;;;5007992;28;20475;-74
2024/03/15 05:20:55;;;;;;;3.42;2.10;;;12.00;99.90;;;;;;5012198;28;20141;-69
2024/03/15 05:23:20;;;;;;;3.97;1.90;;;12.00;99.90;;;;;;5013664;28;20120;-70
2024/03/15 05:25:46;;;;;;;6.05;2.10;;;11.90;99.90;;;;;;5014745;28;20038;-70
2024/03/15 05:28:11;;;;;;;7.45;2.75;;;11.90;99.90;;;;;;5012643;28;20034;-71
2024/03/15 05:30:37;;;;;;;6.38;2.47;;;11.90;99.90;;;;;;5012685;28;20034;-70
2024/03/15 05:33:03;;;;;;;8.00;2.53;;;11.90;99.90;;;;;;5009403;28;20043;-68
2024/03/15 05:35:29;;;;;;;7.43;2.67;;;11.80;99.90;;;;;;5009185;28;20072;-69
2024/03/15 05:37:54;;;;;;;8.30;2.45;;;11.80;99.90;;;;;;4993148;28;20041;-71
2024/03/15 05:40:21;;;;;;;9.15;2.83;;;11.90;99.90;;;;;;5006650;28;20410;-71
2024/03/15 05:42:47;;;;;;;8.38;2.95;;;11.90;99.90;;;;;;5011463;28;20041;-71
2024/03/15 05:45:13;;;;;;;5.93;2.55;;;11.90;99.90;;;;;;5010262;28;20430;-69
2024/03/15 05:47:39;;;;;;;7.28;2.88;;;11.80;99.90;;;;;;5014386;28;20045;-71
2024/03/15 05:50:06;;;;;;;7.82;3.25;;;11.80;99.90;;;;;;5015742;28;20026;-70
2024/03/15 05:52:32;;;;;;;10.68;3.50;;;11.90;99.90;;;;;;5013177;28;20034;-70
2024/03/15 05:54:59;;;;;;;11.23;3.53;;;11.90;99.90;;;;;;5010327;28;20077;-71
2024/03/15 05:57:26;;;;;;;8.63;3.20;;;11.90;99.90;;;;;;5014598;28;20034;-72
2024/03/15 05:59:52;;;;;;;6.55;3.33;;;11.80;99.90;;;;;;5012026;28;20119;-70
2024/03/15 06:02:20;;;;;;;8.77;3.20;;;11.80;99.90;;;;;;4995118;28;20470;-71
2024/03/15 06:04:45;;;;;;;9.63;3.38;;;11.80;99.90;;;;;;5015740;28;20037;-71
2024/03/15 06:07:11;;;;;;;5.80;2.90;;;11.80;99.90;;;;;;4989900;28;20030;-71
2024/03/15 06:09:38;;;;;;;11.80;3.10;;;11.80;99.90;;;;;;5008256;28;20062;-70
2024/03/15 06:12:04;;;;;;;8.10;3.30;;;11.80;99.90;;;;;;5011994;28;20025;-70
2024/03/15 06:14:30;;;;;;;8.80;3.13;;;11.80;99.90;;;;;;5011576;28;20053;-71
2024/03/15 06:16:56;;;;;;;8.10;3.00;;;11.80;99.90;;;;;;5015255;28;20483;-72
2024/03/15 06:19:22;;;;;;;8.43;4.28;;;11.80;99.90;;;;;;5007248;28;20112;-71
2024/03/15 06:21:49;;;;;;;7.97;3.30;;;11.80;99.90;;;;;;5012559;28;20049;-68
2024/03/15 06:24:21;;;;;;;14.75;3.50;;;11.80;99.90;;;;;;5014026;28;20407;-70
2024/03/15 06:26:52;;;;;;;4.80;3.00;;;11.80;99.90;;;;;;4994884;28;20833;-71
2024/03/15 06:29:20;;;;;;;5.10;3.13;;;11.80;99.90;;;;;;5015306;28;20125;-71
2024/03/15 06:31:45;;;;;;;8.80;3.80;;;11.70;99.90;;;;;;5011929;28;20037;-69
2024/03/15 06:34:12;;;;;;;8.25;3.65;;;11.70;99.90;;;;;;4994484;28;20030;-70
2024/03/15 06:36:44;;;;;;;11.35;3.30;;;11.80;99.90;;;;;;5013067;28;20117;-71
2024/03/15 06:39:24;;;;;;;13.38;3.90;;;11.90;99.90;;;;;;4987337;28;20100;-70
2024/03/15 06:41:53;;;;;;;9.30;3.50;;;11.90;99.90;;;;;;4987171;28;20042;-71
2024/03/15 06:47:52;;;;;;;11.30;3.38;;;11.90;99.90;;;;;;5014644;28;20030;-71
2024/03/15 06:50:06;;;;;;;9.45;3.17;;;12.00;99.90;;;;;;4996491;28;20121;-71
2024/03/15 06:52:34;;;;;;;11.80;3.40;;;11.90;99.90;;;;;;5012095;28;20581;-72
2024/03/15 06:55:04;;;;;;;12.88;3.28;;;12.00;99.90;;;;;;5015217;28;20132;-71
2024/03/15 06:57:31;;;;;;;7.88;3.40;;;12.00;99.90;;;;;;4999291;28;20033;-72
2024/03/15 06:59:57;;;;;;;13.13;4.18;;;12.10;99.90;;;;;;5021485;28;20051;-71
2024/03/15 07:02:29;;;;;;;9.60;4.20;;;12.00;99.90;;;;;;4998858;28;20513;-71
2024/03/15 07:04:55;;;;;;;8.43;3.40;;;12.10;99.90;;;;;;4998465;28;20112;-71
2024/03/15 07:07:21;;;;;;;10.02;3.72;;;12.10;99.90;;;;;;5016362;28;20471;-71
2024/03/15 07:09:49;;;;;;;8.90;3.13;;;12.10;99.90;;;;;;5016102;28;20096;-73
2024/03/15 07:12:15;;;;;;;8.43;2.85;;;12.10;99.90;;;;;;5013290;28;20026;-72
2024/03/15 07:14:42;;;;;;;7.93;3.50;;;12.20;99.90;;;;;;5012361;28;20030;-72
2024/03/15 07:17:09;;;;;;;6.40;2.83;;;12.20;99.90;;;;;;5018084;28;20067;-70
2024/03/15 07:19:35;;;;;;;10.38;3.13;;;12.30;99.90;;;;;;5016736;28;20523;-72
2024/03/15 07:22:01;;;;;;;11.48;2.80;;;12.40;99.90;;;;;;5020687;28;20033;-71
2024/03/15 07:24:27;;;;;;;5.88;2.20;;;12.40;99.90;;;;;;5014687;28;20041;-71
2024/03/15 07:26:52;;;;;;;9.55;2.92;;;12.40;99.90;;;;;;5017651;28;20030;-71
2024/03/15 07:29:18;;;;;;;10.10;2.55;;;12.40;99.90;;;;;;5019098;28;20065;-72
2024/03/15 07:31:43;;;;;;;8.60;2.42;;;12.60;99.90;;;;;;5006002;28;20034;-70
2024/03/15 07:34:09;;;;;;;8.40;2.53;;;12.60;99.90;;;;;;5017798;28;20060;-70
2024/03/15 07:36:34;;;;;;;8.82;2.30;;;12.60;99.90;;;;;;5015867;28;20042;-70
2024/03/15 07:39:00;;;;;;;7.47;2.88;;;12.60;99.90;;;;;;5013822;28;20030;-71
2024/03/15 07:41:31;;;;;;;8.48;1.98;;;12.60;99.90;;;;;;5011698;28;20708;-71
2024/03/15 07:43:57;;;;;;;6.00;2.00;;;12.70;99.90;;;;;;5013178;28;20056;-71
2024/03/15 07:46:23;;;;;;;16.23;2.20;;;12.70;99.90;;;;;;5009610;28;20499;-72
2024/03/15 07:48:48;;;;;;;6.63;2.13;;;12.70;99.90;;;;;;5015618;28;20088;-72
2024/03/15 07:51:14;;;;;;;7.90;2.70;;;12.70;99.90;;;;;;4992320;28;20041;-72
2024/03/15 07:53:40;;;;;;;10.10;2.45;;;12.70;99.90;;;;;;5011433;28;20037;-72
2024/03/15 07:56:09;;;;;;;8.20;3.55;;;12.80;99.90;;;;;;5000388;28;20119;-71
2024/03/15 07:58:36;;;;;;;4.15;2.00;;;12.90;99.90;;;;;;4996294;28;20040;-70
2024/03/15 08:01:02;;;;;;;12.13;2.50;;;13.00;99.90;;;;;;5013529;28;20069;-69
2024/03/15 08:03:27;;;;;;;12.52;3.00;;;13.10;99.90;;;;;;5009135;28;20067;-70
2024/03/15 08:06:00;;;;;;;6.30;2.05;;;13.10;99.90;;;;;;5013460;28;20033;-68
2024/03/15 08:08:26;;;;;;;7.63;1.63;;;13.10;99.90;;;;;;5009555;28;20054;-69
2024/03/15 08:10:52;;;;;;;3.95;2.20;;;13.20;99.90;;;;;;4994388;28;20041;-72
2024/03/15 08:13:21;;;;;;;10.73;2.00;;;13.20;99.90;;;;;;5009409;28;20120;-69
2024/03/15 08:15:54;;;;;;;4.60;1.50;;;13.30;99.90;;;;;;5007986;28;20574;-71
2024/03/15 08:18:19;;;;;;;5.55;1.60;;;13.30;99.90;;;;;;5010155;28;20037;-70
2024/03/15 08:20:47;;;;;;;7.15;1.27;;;13.40;99.90;;;;;;5010906;28;20045;-70
2024/03/15 08:23:12;;;;;;;3.35;1.15;;;13.40;99.90;;;;;;4993014;28;20034;-69
2024/03/15 08:25:41;;;;;;;3.83;1.17;;;13.50;99.90;;;;;;5012034;28;20132;-73
2024/03/15 08:28:07;;;;;;;8.55;1.50;;;13.50;99.90;;;;;;5014043;28;20383;-70
2024/03/15 08:30:32;;;;;;;5.45;1.48;;;13.60;99.90;;;;;;5012350;28;20052;-72
2024/03/15 08:32:58;;;;;;;6.38;1.02;;;13.70;99.90;;;;;;5011044;28;20042;-72
2024/03/15 08:35:24;;;;;;;7.82;1.92;;;13.90;99.90;;;;;;5010865;28;20052;-69
2024/03/15 08:37:50;;;;;;;3.65;1.55;;;14.00;99.90;;;;;;5011574;28;20037;-70
2024/03/15 08:40:16;;;;;;;3.03;1.00;;;13.90;99.90;;;;;;4987255;28;20725;-70
2024/03/15 08:42:45;;;;;;;3.83;1.10;;;13.90;99.90;;;;;;5011526;28;20029;-70
2024/03/15 08:45:11;;;;;;;5.43;1.38;;;13.80;99.90;;;;;;4997512;28;20539;-71
2024/03/15 08:47:40;;;;;;;4.65;1.55;;;13.80;99.90;;;;;;5006169;28;20051;-71
2024/03/15 08:50:11;;;;;;;8.50;1.40;;;13.70;99.90;;;;;;5009285;28;20491;-70
2024/03/15 08:52:39;;;;;;;7.55;1.20;;;13.90;99.90;;;;;;5012962;28;20095;-69
2024/03/15 08:55:08;;;;;;;7.20;1.20;;;14.10;99.90;;;;;;5010418;28;20036;-70
2024/03/15 08:57:34;;;;;;;5.57;1.35;;;14.30;99.90;;;;;;5011329;28;20056;-72
2024/03/15 09:00:00;;;;;;;5.03;1.02;;;14.50;99.90;;;;;;5004580;28;20065;-70
2024/03/15 09:02:26;;;;;;;7.15;1.42;;;14.70;99.90;;;;;;4994547;28;20037;-73
2024/03/15 09:04:52;;;;;;;5.40;1.15;;;14.70;99.90;;;;;;5008556;28;20775;-73
2024/03/15 09:07:19;;;;;;;6.05;1.35;;;14.70;99.90;;;;;;5013982;28;20033;-70
2024/03/15 09:09:45;;;;;;;3.33;1.35;;;14.90;99.90;;;;;;5011906;28;20300;-69
2024/03/15 09:12:11;;;;;;;3.70;1.60;;;15.00;99.90;;;;;;5010540;28;20555;-72
2024/03/15 09:14:37;;;;;;;6.18;2.25;;;15.00;99.90;;;;;;5011403;28;20040;-73
2024/03/15 09:17:12;;;;;;;7.95;2.00;;;14.90;99.90;;;;;;5010392;28;20092;-70
2024/03/15 09:19:38;;;;;;;7.80;2.15;;;14.90;99.90;;;;;;5009126;28;20033;-70
2024/03/15 09:22:03;;;;;;;6.55;1.52;;;14.90;99.90;;;;;;5019055;28;20029;-71
2024/03/15 09:24:31;;;;;;;7.68;1.77;;;14.90;99.90;;;;;;5013538;28;20443;-71
2024/03/15 09:26:57;;;;;;;3.58;1.00;;;15.00;99.90;;;;;;4995379;28;20021;-72
2024/03/15 09:29:23;;;;;;;7.15;1.58;;;15.00;99.90;;;;;;5011998;28;20064;-71
2024/03/15 09:31:51;;;;;;;5.45;1.60;;;14.90;99.90;;;;;;5013927;28;20033;-71
2024/03/15 09:34:17;;;;;;;4.88;1.00;;;14.90;99.90;;;;;;5011551;28;20411;-70
2024/03/15 09:36:43;;;;;;;4.75;1.30;;;14.90;99.90;;;;;;5013918;28;20026;-70
2024/03/15 09:39:13;;;;;;;3.45;1.20;;;14.90;99.90;;;;;;5010679;28;20045;-70
2024/03/15 09:41:41;;;;;;;3.97;1.23;;;15.00;99.90;;;;;;5005810;28;20037;-72
2024/03/15 09:44:14;;;;;;;8.98;1.77;;;15.10;99.90;;;;;;5008349;28;20738;-70
2024/03/15 09:46:41;;;;;;;3.63;1.42;;;15.00;99.90;;;;;;5008915;28;20407;-73
2024/03/15 09:49:14;;;;;;;6.32;1.83;;;15.00;99.90;;;;;;4994889;28;20073;-71
2024/03/15 09:51:40;;;;;;;7.80;1.55;;;15.00;99.90;;;;;;5011170;28;20033;-71
2024/03/15 09:54:09;;;;;;;3.63;1.13;;;15.00;99.90;;;;;;5005226;28;20045;-71
2024/03/15 09:56:37;;;;;;;3.58;0.90;;;15.00;99.90;;;;;;5013728;28;20041;-74
2024/03/15 09:59:13;;;;;;;5.35;1.35;;;15.00;99.90;;;;;;4989708;28;20080;-74
2024/03/15 10:01:39;;;;;;;4.13;0.90;;;14.90;99.90;;;;;;5010437;28;20037;-75
2024/03/15 10:04:08;;;;;;;7.18;1.10;;;15.00;99.90;;;;;;5008543;28;20030;-73
2024/03/15 10:06:34;;;;;;;10.82;1.00;;;15.00;99.90;;;;;;4998003;28;20061;-72
2024/03/15 10:09:01;;;;;;;9.80;1.35;;;15.00;99.90;;;;;;4996435;28;20116;-71
2024/03/15 10:11:26;;;;;;;3.47;0.55;;;15.00;99.90;;;;;;5010364;28;20422;-72
2024/03/15 10:13:52;;;;;;;9.10;1.67;;;15.10;99.90;;;;;;5010916;28;20045;-72
2024/03/15 10:16:17;;;;;;;7.90;0.77;;;15.20;99.90;;;;;;4993264;28;20132;-72
2024/03/15 10:18:43;;;;;;;7.38;1.42;;;15.10;99.90;;;;;;5014110;28;20126;-71
2024/03/15 10:21:09;;;;;;;3.03;1.00;;;15.10;99.90;;;;;;5012366;28;20052;-71
2024/03/15 10:23:35;;;;;;;5.65;1.63;;;15.00;99.90;;;;;;5014323;28;20410;-72
2024/03/15 10:26:00;;;;;;;9.60;1.20;;;14.90;99.90;;;;;;4992439;28;20042;-70
2024/03/15 10:28:26;;;;;;;8.13;0.95;;;14.90;99.90;;;;;;5012024;28;20040;-71
2024/03/15 10:30:55;;;;;;;3.78;0.80;;;14.70;99.90;;;;;;5015150;28;20030;-72
2024/03/15 10:33:21;;;;;;;7.55;0.88;;;14.60;99.90;;;;;;5014175;28;20048;-72
2024/03/15 10:35:47;;;;;;;8.90;1.33;;;14.50;99.90;;;;;;4992827;28;20034;-72
2024/03/15 10:38:14;;;;;;;6.60;1.25;;;14.40;99.90;;;;;;5012419;28;20030;-72
2024/03/15 10:40:40;;;;;;;6.82;1.13;;;14.50;99.90;;;;;;5014826;28;20092;-70
2024/03/15 10:43:11;;;;;;;6.68;1.10;;;14.70;99.90;;;;;;5010996;28;20530;-73
2024/03/15 10:45:37;;;;;;;7.43;0.60;;;14.80;99.90;;;;;;5011787;28;20072;-71
2024/03/15 10:48:08;;;;;;;11.80;1.00;;;14.90;99.90;;;;;;4995393;28;20034;-72
2024/03/15 10:50:38;;;;;;;3.90;0.65;;;14.90;99.90;;;;;;5007021;28;20042;-71
2024/03/15 10:53:09;;;;;;;3.50;1.00;;;15.00;99.90;;;;;;5012907;28;20521;-73
2024/03/15 10:55:34;;;;;;;7.38;1.00;;;15.20;99.90;;;;;;5010279;28;20466;-71
2024/03/15 10:58:05;;;;;;;8.93;1.35;;;15.30;99.90;;;;;;5012607;28;20038;-73
2024/03/15 11:00:31;;;;;;;5.60;0.98;;;15.30;99.90;;;;;;5018629;28;20071;-72
2024/03/15 11:03:10;;;;;;;6.28;0.80;;;15.40;99.90;;;;;;5006584;28;20495;-70
2024/03/15 11:05:36;;;;;;;8.52;1.50;;;15.60;99.90;;;;;;4982008;28;20037;-70
2024/03/15 11:08:06;;;;;;;2.75;0.73;;;15.80;99.90;;;;;;4996950;28;20030;-69
2024/03/15 11:10:32;;;;;;;4.43;0.50;;;15.80;99.90;;;;;;5007161;28;20120;-72
2024/03/15 11:13:01;;;;;;;3.65;0.65;;;15.80;99.90;;;;;;4995535;28;20496;-70
2024/03/15 11:15:37;;;;;;;4.13;0.52;;;16.00;99.90;;;;;;5015646;28;20502;-70
2024/03/15 11:18:03;;;;;;;3.17;0.70;;;16.10;99.90;;;;;;4987171;28;20029;-70
2024/03/15 11:21:05;;;;;;;10.77;1.05;;;16.10;99.90;;;;;;5009978;28;20515;-73
2024/03/15 11:23:35;;;;;;;4.07;0.60;;;16.10;99.90;;;;;;5006492;28;20040;-73
2024/03/15 11:26:01;;;;;;;4.07;0.95;;;16.00;99.90;;;;;;5002934;28;20072;-71
2024/03/15 11:28:32;;;;;;;9.43;1.15;;;15.90;99.90;;;;;;5015812;28;20076;-70
2024/03/15 11:30:58;;;;;;;4.28;0.60;;;15.80;99.90;;;;;;4990653;28;20037;-69
2024/03/15 11:33:29;;;;;;;2.95;0.57;;;15.60;99.90;;;;;;5008101;28;20065;-71
2024/03/15 11:36:00;;;;;;;2.60;0.30;;;15.50;99.90;;;;;;4998033;28;20070;-71
2024/03/15 11:38:28;;;;;;;4.80;0.57;;;15.40;99.90;;;;;;5008707;28;20050;-71
2024/03/15 11:40:56;;;;;;;5.20;0.85;;;15.30;99.90;;;;;;5013364;28;20046;-69
2024/03/15 11:43:22;;;;;;;2.88;1.17;;;15.20;99.90;;;;;;5001782;28;20502;-72
2024/03/15 11:45:48;;;;;;;3.50;0.60;;;15.40;99.90;;;;;;5010769;28;20140;-74
2024/03/15 11:48:17;;;;;;;2.85;0.40;;;15.40;99.90;;;;;;5004775;28;20069;-73
2024/03/15 11:50:44;;;;;;;5.80;0.70;;;15.30;99.90;;;;;;5013332;28;20052;-70
2024/03/15 11:53:12;;;;;;;8.32;0.80;;;15.40;99.90;;;;;;4994775;28;20040;-72
2024/03/15 11:55:42;;;;;;;2.67;0.50;;;15.50;99.90;;;;;;4994907;28;20045;-71
2024/03/15 11:58:20;;;;;;;3.03;0.50;;;15.50;99.90;;;;;;5007916;28;20473;-71
2024/03/15 12:00:48;;;;;;;5.57;0.70;;;15.70;99.90;;;;;;5011397;28;20297;-72
2024/03/15 12:03:15;;;;;;;3.10;0.85;;;15.80;99.90;;;;;;4995176;28;20045;-71
2024/03/15 12:05:43;;;;;;;4.22;0.43;;;15.90;99.90;;;;;;5008945;28;20100;-72
2024/03/15 12:08:18;;;;;;;7.80;0.63;;;15.90;99.90;;;;;;5012383;28;20141;-71
2024/03/15 12:10:44;;;;;;;3.35;1.02;;;15.80;99.90;;;;;;5013304;28;20041;-70
2024/03/15 12:13:28;;;;;;;3.05;0.85;;;15.80;99.90;;;;;;5011939;28;20109;-72
2024/03/15 12:15:55;;;;;;;4.38;0.55;;;15.70;99.90;;;;;;5009386;28;20045;-70
2024/03/15 12:18:22;;;;;;;4.80;0.60;;;15.50;99.90;;;;;;5015783;28;20026;-71
2024/03/15 12:20:52;;;;;;;2.28;0.90;;;15.40;99.90;;;;;;5009876;28;20049;-69
2024/03/15 12:23:23;;;;;;;8.55;1.27;;;15.20;99.90;;;;;;5013182;28;20403;-71
2024/03/15 12:25:49;;;;;;;;;;;15.20;99.90;;;;;;5015431;28;20480;-71
2024/03/15 12:28:17;;;;;;;5.72;0.65;;;15.10;99.90;;;;;;5012186;28;19920;-71
2024/03/15 12:30:44;;;;;;;4.03;0.90;;;15.20;99.90;;;;;;5016261;28;20096;-71
2024/03/15 12:33:10;;;;;;;1.85;0.40;;;15.20;99.90;;;;;;5015388;28;20053;-71
2024/03/15 12:35:36;;;;;;;10.38;0.90;;;15.20;99.90;;;;;;5015103;28;20474;-68
2024/03/15 12:38:02;;;;;;;1.90;0.70;;;15.30;99.90;;;;;;5008788;28;20525;-70
2024/03/15 12:40:28;;;;;;;5.95;0.73;;;15.40;99.90;;;;;;4999515;28;20035;-72
2024/03/15 12:42:54;;;;;;;5.43;1.67;;;15.50;99.90;;;;;;4998010;28;20053;-70
2024/03/15 12:45:19;;;;;;;1.38;0.35;;;15.50;99.90;;;;;;5008821;28;21278;-70
2024/03/15 12:47:45;;;;;;;1.45;0.50;;;15.70;99.90;;;;;;5010698;28;20064;-72